sensor_id;sensor_type;location;lat;lon;timestamp;P1;durP1;ratioP1;P2;durP2;ratioP2
84796;SDS011;75028;51.374;21.078;2024-01-15T00:00:07;20.10;;;10.38;;
84796;SDS011;75028;51.374;21.078;2024-01-15T00:02:34;17.58;;;9.45;;
84796;SDS011;75028;51.374;21.078;2024-01-15T00:05:00;19.85;;;10.18;;
84796;SDS011;75028;51.374;21.078;2024-01-15T00:07:26;19.17;;;10.82;;
84796;SDS011;75028;51.374;21.078;2024-01-15T00:09:52;18.50;;;8.57;;
84796;SDS011;75028;51.374;21.078;2024-01-15T00:12:18;22.38;;;9.38;;
84796;SDS011;75028;51.374;21.078;2024-01-15T00:14:44;19.38;;;10.38;;
84796;SDS011;75028;51.374;21.078;2024-01-15T00:17:10;18.35;;;8.88;;
84796;SDS011;75028;51.374;21.078;2024-01-15T00:19:36;19.15;;;9.00;;
84796;SDS011;75028;51.374;21.078;2024-01-15T00:22:02;20.25;;;9.25;;
84796;SDS011;75028;51.374;21.078;2024-01-15T00:24:28;19.42;;;9.93;;
84796;SDS011;75028;51.374;21.078;2024-01-15T00:26:54;17.35;;;9.23;;
84796;SDS011;75028;51.374;21.078;2024-01-15T00:29:20;19.02;;;8.98;;
84796;SDS011;75028;51.374;21.078;2024-01-15T00:31:47;14.45;;;8.13;;
84796;SDS011;75028;51.374;21.078;2024-01-15T00:34:13;17.58;;;9.07;;
84796;SDS011;75028;51.374;21.078;2024-01-15T00:36:39;17.88;;;9.13;;
84796;SDS011;75028;51.374;21.078;2024-01-15T00:39:04;19.30;;;9.15;;
84796;SDS011;75028;51.374;21.078;2024-01-15T00:41:31;18.85;;;8.60;;
84796;SDS011;75028;51.374;21.078;2024-01-15T00:43:57;19.73;;;8.77;;
84796;SDS011;75028;51.374;21.078;2024-01-15T00:46:23;19.42;;;8.52;;
84796;SDS011;75028;51.374;21.078;2024-01-15T00:48:49;18.30;;;8.25;;
84796;SDS011;75028;51.374;21.078;2024-01-15T00:51:15;22.30;;;8.38;;
84796;SDS011;75028;51.374;21.078;2024-01-15T00:53:41;20.98;;;9.73;;
84796;SDS011;75028;51.374;21.078;2024-01-15T00:56:07;19.85;;;9.80;;
84796;SDS011;75028;51.374;21.078;2024-01-15T00:58:33;18.08;;;8.90;;
84796;SDS011;75028;51.374;21.078;2024-01-15T01:00:59;18.25;;;9.65;;
84796;SDS011;75028;51.374;21.078;2024-01-15T01:03:25;20.58;;;10.55;;
84796;SDS011;75028;51.374;21.078;2024-01-15T01:05:51;17.02;;;8.82;;
84796;SDS011;75028;51.374;21.078;2024-01-15T01:08:17;21.95;;;10.15;;
84796;SDS011;75028;51.374;21.078;2024-01-15T01:10:43;20.63;;;9.23;;
84796;SDS011;75028;51.374;21.078;2024-01-15T01:13:09;21.85;;;9.15;;
84796;SDS011;75028;51.374;21.078;2024-01-15T01:15:35;23.58;;;11.20;;
84796;SDS011;75028;51.374;21.078;2024-01-15T01:18:01;20.02;;;11.07;;
84796;SDS011;75028;51.374;21.078;2024-01-15T01:20:27;23.67;;;11.20;;
84796;SDS011;75028;51.374;21.078;2024-01-15T01:22:53;22.27;;;9.95;;
84796;SDS011;75028;51.374;21.078;2024-01-15T01:25:19;24.90;;;10.88;;
84796;SDS011;75028;51.374;21.078;2024-01-15T01:27:45;26.85;;;11.88;;
84796;SDS011;75028;51.374;21.078;2024-01-15T01:30:11;22.80;;;11.77;;
84796;SDS011;75028;51.374;21.078;2024-01-15T01:32:37;22.63;;;11.05;;
84796;SDS011;75028;51.374;21.078;2024-01-15T01:35:03;26.98;;;11.50;;
84796;SDS011;75028;51.374;21.078;2024-01-15T01:37:30;18.38;;;10.25;;
84796;SDS011;75028;51.374;21.078;2024-01-15T01:39:56;20.40;;;10.75;;
84796;SDS011;75028;51.374;21.078;2024-01-15T01:42:22;20.10;;;9.48;;
84796;SDS011;75028;51.374;21.078;2024-01-15T01:44:48;20.13;;;9.23;;
84796;SDS011;75028;51.374;21.078;2024-01-15T01:47:14;21.77;;;10.23;;
84796;SDS011;75028;51.374;21.078;2024-01-15T01:49:40;21.13;;;9.60;;
84796;SDS011;75028;51.374;21.078;2024-01-15T01:52:08;21.27;;;10.48;;
84796;SDS011;75028;51.374;21.078;2024-01-15T01:54:35;22.15;;;11.20;;
84796;SDS011;75028;51.374;21.078;2024-01-15T01:57:02;20.50;;;10.23;;
84796;SDS011;75028;51.374;21.078;2024-01-15T01:59:30;21.58;;;10.70;;
84796;SDS011;75028;51.374;21.078;2024-01-15T02:01:59;22.83;;;11.05;;
84796;SDS011;75028;51.374;21.078;2024-01-15T02:04:26;16.73;;;10.05;;
84796;SDS011;75028;51.374;21.078;2024-01-15T02:06:53;23.80;;;10.45;;
84796;SDS011;75028;51.374;21.078;2024-01-15T02:09:19;22.00;;;10.10;;
84796;SDS011;75028;51.374;21.078;2024-01-15T02:11:49;18.80;;;10.20;;
84796;SDS011;75028;51.374;21.078;2024-01-15T02:14:15;26.23;;;10.40;;
84796;SDS011;75028;51.374;21.078;2024-01-15T02:16:41;20.65;;;10.25;;
84796;SDS011;75028;51.374;21.078;2024-01-15T02:19:07;22.00;;;11.13;;
84796;SDS011;75028;51.374;21.078;2024-01-15T02:21:39;20.60;;;10.77;;
84796;SDS011;75028;51.374;21.078;2024-01-15T02:24:05;21.52;;;9.85;;
84796;SDS011;75028;51.374;21.078;2024-01-15T02:26:31;23.60;;;11.25;;
84796;SDS011;75028;51.374;21.078;2024-01-15T02:29:01;21.67;;;10.98;;
84796;SDS011;75028;51.374;21.078;2024-01-15T02:31:27;21.17;;;10.07;;
84796;SDS011;75028;51.374;21.078;2024-01-15T02:33:53;19.13;;;9.50;;
84796;SDS011;75028;51.374;21.078;2024-01-15T02:36:19;19.30;;;10.13;;
84796;SDS011;75028;51.374;21.078;2024-01-15T02:38:45;23.70;;;9.05;;
84796;SDS011;75028;51.374;21.078;2024-01-15T02:41:11;19.15;;;8.38;;
84796;SDS011;75028;51.374;21.078;2024-01-15T02:43:40;19.80;;;9.95;;
84796;SDS011;75028;51.374;21.078;2024-01-15T02:46:06;21.55;;;10.93;;
84796;SDS011;75028;51.374;21.078;2024-01-15T02:48:32;18.80;;;9.60;;
84796;SDS011;75028;51.374;21.078;2024-01-15T02:51:00;19.50;;;9.57;;
84796;SDS011;75028;51.374;21.078;2024-01-15T02:53:27;24.55;;;10.45;;
84796;SDS011;75028;51.374;21.078;2024-01-15T02:55:53;22.40;;;10.48;;
84796;SDS011;75028;51.374;21.078;2024-01-15T02:58:20;20.80;;;9.95;;
84796;SDS011;75028;51.374;21.078;2024-01-15T03:00:47;24.30;;;10.07;;
84796;SDS011;75028;51.374;21.078;2024-01-15T03:03:13;22.75;;;9.82;;
84796;SDS011;75028;51.374;21.078;2024-01-15T03:05:39;21.60;;;9.25;;
84796;SDS011;75028;51.374;21.078;2024-01-15T03:08:05;19.77;;;8.20;;
84796;SDS011;75028;51.374;21.078;2024-01-15T03:10:31;21.85;;;9.57;;
84796;SDS011;75028;51.374;21.078;2024-01-15T03:12:57;18.75;;;9.60;;
84796;SDS011;75028;51.374;21.078;2024-01-15T03:15:23;21.60;;;8.85;;
84796;SDS011;75028;51.374;21.078;2024-01-15T03:17:49;21.25;;;10.00;;
84796;SDS011;75028;51.374;21.078;2024-01-15T03:20:15;22.05;;;9.93;;
84796;SDS011;75028;51.374;21.078;2024-01-15T03:22:41;16.35;;;9.07;;
84796;SDS011;75028;51.374;21.078;2024-01-15T03:25:07;16.17;;;9.40;;
84796;SDS011;75028;51.374;21.078;2024-01-15T03:27:33;20.58;;;8.80;;
84796;SDS011;75028;51.374;21.078;2024-01-15T03:29:59;19.42;;;8.98;;
84796;SDS011;75028;51.374;21.078;2024-01-15T03:32:25;17.05;;;7.75;;
84796;SDS011;75028;51.374;21.078;2024-01-15T03:34:51;18.33;;;9.00;;
84796;SDS011;75028;51.374;21.078;2024-01-15T03:37:18;19.90;;;10.07;;
84796;SDS011;75028;51.374;21.078;2024-01-15T03:42:10;16.60;;;7.75;;
84796;SDS011;75028;51.374;21.078;2024-01-15T03:44:36;13.93;;;7.05;;
84796;SDS011;75028;51.374;21.078;2024-01-15T03:47:02;19.02;;;8.25;;
84796;SDS011;75028;51.374;21.078;2024-01-15T03:49:28;17.05;;;9.73;;
84796;SDS011;75028;51.374;21.078;2024-01-15T03:51:54;15.27;;;8.25;;
84796;SDS011;75028;51.374;21.078;2024-01-15T03:54:20;15.15;;;7.85;;
84796;SDS011;75028;51.374;21.078;2024-01-15T03:56:46;14.13;;;7.30;;
84796;SDS011;75028;51.374;21.078;2024-01-15T03:59:12;14.48;;;7.38;;
84796;SDS011;75028;51.374;21.078;2024-01-15T04:01:38;14.40;;;8.27;;
84796;SDS011;75028;51.374;21.078;2024-01-15T04:04:04;14.68;;;7.95;;
84796;SDS011;75028;51.374;21.078;2024-01-15T04:06:30;15.63;;;7.88;;
84796;SDS011;75028;51.374;21.078;2024-01-15T04:08:56;16.52;;;8.00;;
84796;SDS011;75028;51.374;21.078;2024-01-15T04:11:22;15.80;;;6.82;;
84796;SDS011;75028;51.374;21.078;2024-01-15T04:13:48;16.60;;;8.65;;
84796;SDS011;75028;51.374;21.078;2024-01-15T04:16:14;15.13;;;7.88;;
84796;SDS011;75028;51.374;21.078;2024-01-15T04:18:40;16.42;;;7.40;;
84796;SDS011;75028;51.374;21.078;2024-01-15T04:21:06;17.38;;;7.25;;
84796;SDS011;75028;51.374;21.078;2024-01-15T04:23:32;20.58;;;7.90;;
84796;SDS011;75028;51.374;21.078;2024-01-15T04:28:24;18.02;;;7.88;;
84796;SDS011;75028;51.374;21.078;2024-01-15T04:30:51;14.93;;;7.18;;
84796;SDS011;75028;51.374;21.078;2024-01-15T04:33:16;16.80;;;7.18;;
84796;SDS011;75028;51.374;21.078;2024-01-15T04:35:42;16.38;;;6.82;;
84796;SDS011;75028;51.374;21.078;2024-01-15T04:38:08;16.05;;;7.38;;
84796;SDS011;75028;51.374;21.078;2024-01-15T04:40:34;16.05;;;6.68;;
84796;SDS011;75028;51.374;21.078;2024-01-15T04:43:00;14.65;;;7.53;;
84796;SDS011;75028;51.374;21.078;2024-01-15T04:45:27;15.10;;;7.72;;
84796;SDS011;75028;51.374;21.078;2024-01-15T04:47:54;13.57;;;6.47;;
84796;SDS011;75028;51.374;21.078;2024-01-15T04:50:24;14.30;;;7.35;;
84796;SDS011;75028;51.374;21.078;2024-01-15T04:52:50;14.43;;;7.38;;
84796;SDS011;75028;51.374;21.078;2024-01-15T04:55:16;17.10;;;7.80;;
84796;SDS011;75028;51.374;21.078;2024-01-15T04:57:42;16.92;;;7.80;;
84796;SDS011;75028;51.374;21.078;2024-01-15T05:00:09;13.95;;;8.13;;
84796;SDS011;75028;51.374;21.078;2024-01-15T05:05:02;14.90;;;8.02;;
84796;SDS011;75028;51.374;21.078;2024-01-15T05:07:28;16.00;;;7.20;;
84796;SDS011;75028;51.374;21.078;2024-01-15T05:09:54;15.23;;;7.80;;
84796;SDS011;75028;51.374;21.078;2024-01-15T05:12:19;17.17;;;8.68;;
84796;SDS011;75028;51.374;21.078;2024-01-15T05:14:46;13.68;;;7.28;;
84796;SDS011;75028;51.374;21.078;2024-01-15T05:17:12;17.00;;;7.82;;
84796;SDS011;75028;51.374;21.078;2024-01-15T05:19:38;16.65;;;7.82;;
84796;SDS011;75028;51.374;21.078;2024-01-15T05:22:04;19.38;;;8.90;;
84796;SDS011;75028;51.374;21.078;2024-01-15T05:24:30;16.67;;;8.07;;
84796;SDS011;75028;51.374;21.078;2024-01-15T05:26:55;14.45;;;7.63;;
84796;SDS011;75028;51.374;21.078;2024-01-15T05:29:22;14.60;;;7.50;;
84796;SDS011;75028;51.374;21.078;2024-01-15T05:31:47;13.88;;;7.28;;
84796;SDS011;75028;51.374;21.078;2024-01-15T05:34:14;14.60;;;8.30;;
84796;SDS011;75028;51.374;21.078;2024-01-15T05:36:39;17.80;;;8.20;;
84796;SDS011;75028;51.374;21.078;2024-01-15T05:39:05;14.90;;;7.80;;
84796;SDS011;75028;51.374;21.078;2024-01-15T05:41:31;12.20;;;6.57;;
84796;SDS011;75028;51.374;21.078;2024-01-15T05:43:58;13.85;;;7.32;;
84796;SDS011;75028;51.374;21.078;2024-01-15T05:46:23;18.25;;;7.97;;
84796;SDS011;75028;51.374;21.078;2024-01-15T05:48:50;18.27;;;8.52;;
84796;SDS011;75028;51.374;21.078;2024-01-15T05:51:17;13.00;;;7.13;;
84796;SDS011;75028;51.374;21.078;2024-01-15T05:53:43;17.23;;;8.10;;
84796;SDS011;75028;51.374;21.078;2024-01-15T05:56:10;17.83;;;7.20;;
84796;SDS011;75028;51.374;21.078;2024-01-15T05:58:37;22.10;;;7.70;;
84796;SDS011;75028;51.374;21.078;2024-01-15T06:01:03;14.27;;;6.85;;
84796;SDS011;75028;51.374;21.078;2024-01-15T06:03:29;11.60;;;6.20;;
84796;SDS011;75028;51.374;21.078;2024-01-15T06:05:55;15.27;;;7.78;;
84796;SDS011;75028;51.374;21.078;2024-01-15T06:08:22;14.38;;;7.43;;
84796;SDS011;75028;51.374;21.078;2024-01-15T06:10:47;13.55;;;6.88;;
84796;SDS011;75028;51.374;21.078;2024-01-15T06:13:13;15.02;;;7.20;;
84796;SDS011;75028;51.374;21.078;2024-01-15T06:15:39;14.13;;;7.15;;
84796;SDS011;75028;51.374;21.078;2024-01-15T06:18:05;14.60;;;6.00;;
84796;SDS011;75028;51.374;21.078;2024-01-15T06:20:31;13.63;;;6.05;;
84796;SDS011;75028;51.374;21.078;2024-01-15T06:25:24;13.32;;;6.75;;
84796;SDS011;75028;51.374;21.078;2024-01-15T06:27:50;15.55;;;7.32;;
84796;SDS011;75028;51.374;21.078;2024-01-15T06:30:16;13.75;;;6.80;;
84796;SDS011;75028;51.374;21.078;2024-01-15T06:32:42;13.90;;;7.32;;
84796;SDS011;75028;51.374;21.078;2024-01-15T06:35:08;15.13;;;7.05;;
84796;SDS011;75028;51.374;21.078;2024-01-15T06:37:36;14.35;;;7.63;;
84796;SDS011;75028;51.374;21.078;2024-01-15T06:40:02;14.80;;;6.60;;
84796;SDS011;75028;51.374;21.078;2024-01-15T06:44:54;15.35;;;7.97;;
84796;SDS011;75028;51.374;21.078;2024-01-15T06:47:20;14.18;;;7.55;;
84796;SDS011;75028;51.374;21.078;2024-01-15T06:49:46;17.80;;;7.78;;
84796;SDS011;75028;51.374;21.078;2024-01-15T06:52:12;14.73;;;8.68;;
84796;SDS011;75028;51.374;21.078;2024-01-15T06:54:38;19.92;;;8.38;;
84796;SDS011;75028;51.374;21.078;2024-01-15T06:57:04;18.75;;;9.00;;
84796;SDS011;75028;51.374;21.078;2024-01-15T06:59:32;15.23;;;8.38;;
84796;SDS011;75028;51.374;21.078;2024-01-15T07:01:59;17.30;;;8.88;;
84796;SDS011;75028;51.374;21.078;2024-01-15T07:04:25;16.63;;;7.97;;
84796;SDS011;75028;51.374;21.078;2024-01-15T07:06:51;22.88;;;11.75;;
84796;SDS011;75028;51.374;21.078;2024-01-15T07:09:18;16.05;;;8.27;;
84796;SDS011;75028;51.374;21.078;2024-01-15T07:11:45;18.25;;;10.05;;
84796;SDS011;75028;51.374;21.078;2024-01-15T07:14:14;17.45;;;8.95;;
84796;SDS011;75028;51.374;21.078;2024-01-15T07:16:41;16.83;;;8.50;;
84796;SDS011;75028;51.374;21.078;2024-01-15T07:19:06;20.30;;;9.85;;
84796;SDS011;75028;51.374;21.078;2024-01-15T07:21:33;18.05;;;8.73;;
84796;SDS011;75028;51.374;21.078;2024-01-15T07:23:58;20.48;;;8.88;;
84796;SDS011;75028;51.374;21.078;2024-01-15T07:26:25;16.45;;;8.73;;
84796;SDS011;75028;51.374;21.078;2024-01-15T07:28:51;17.10;;;8.32;;
84796;SDS011;75028;51.374;21.078;2024-01-15T07:31:17;15.23;;;7.70;;
84796;SDS011;75028;51.374;21.078;2024-01-15T07:33:43;16.95;;;8.38;;
84796;SDS011;75028;51.374;21.078;2024-01-15T07:36:09;14.85;;;7.28;;
84796;SDS011;75028;51.374;21.078;2024-01-15T07:38:35;14.63;;;7.80;;
84796;SDS011;75028;51.374;21.078;2024-01-15T07:41:01;15.65;;;7.03;;
84796;SDS011;75028;51.374;21.078;2024-01-15T07:43:29;14.07;;;7.60;;
84796;SDS011;75028;51.374;21.078;2024-01-15T07:45:56;13.77;;;6.75;;
84796;SDS011;75028;51.374;21.078;2024-01-15T07:48:23;19.95;;;8.43;;
84796;SDS011;75028;51.374;21.078;2024-01-15T07:50:50;20.77;;;7.53;;
84796;SDS011;75028;51.374;21.078;2024-01-15T07:53:15;12.93;;;7.25;;
84796;SDS011;75028;51.374;21.078;2024-01-15T07:55:41;17.45;;;7.28;;
84796;SDS011;75028;51.374;21.078;2024-01-15T07:58:07;13.32;;;7.43;;
84796;SDS011;75028;51.374;21.078;2024-01-15T08:00:34;17.98;;;8.65;;
84796;SDS011;75028;51.374;21.078;2024-01-15T08:02:59;17.30;;;8.52;;
84796;SDS011;75028;51.374;21.078;2024-01-15T08:05:26;15.20;;;8.30;;
84796;SDS011;75028;51.374;21.078;2024-01-15T08:07:51;14.93;;;7.60;;
84796;SDS011;75028;51.374;21.078;2024-01-15T08:10:18;17.20;;;7.78;;
84796;SDS011;75028;51.374;21.078;2024-01-15T08:12:44;19.40;;;9.38;;
84796;SDS011;75028;51.374;21.078;2024-01-15T08:15:11;19.95;;;10.00;;
84796;SDS011;75028;51.374;21.078;2024-01-15T08:17:36;14.32;;;6.72;;
84796;SDS011;75028;51.374;21.078;2024-01-15T08:20:03;18.30;;;7.57;;
84796;SDS011;75028;51.374;21.078;2024-01-15T08:22:30;17.23;;;7.40;;
84796;SDS011;75028;51.374;21.078;2024-01-15T08:24:56;13.20;;;7.00;;
84796;SDS011;75028;51.374;21.078;2024-01-15T08:27:22;13.63;;;7.65;;
84796;SDS011;75028;51.374;21.078;2024-01-15T08:29:48;14.90;;;7.30;;
84796;SDS011;75028;51.374;21.078;2024-01-15T08:32:14;15.32;;;7.95;;
84796;SDS011;75028;51.374;21.078;2024-01-15T08:34:41;14.98;;;6.97;;
84796;SDS011;75028;51.374;21.078;2024-01-15T08:37:08;13.70;;;6.78;;
84796;SDS011;75028;51.374;21.078;2024-01-15T08:39:34;17.63;;;8.27;;
84796;SDS011;75028;51.374;21.078;2024-01-15T08:42:01;17.13;;;8.10;;
84796;SDS011;75028;51.374;21.078;2024-01-15T08:44:27;15.65;;;7.47;;
84796;SDS011;75028;51.374;21.078;2024-01-15T08:46:53;10.18;;;6.10;;
84796;SDS011;75028;51.374;21.078;2024-01-15T08:49:19;18.50;;;8.35;;
84796;SDS011;75028;51.374;21.078;2024-01-15T08:51:45;16.85;;;7.10;;
84796;SDS011;75028;51.374;21.078;2024-01-15T08:54:11;16.80;;;8.60;;
84796;SDS011;75028;51.374;21.078;2024-01-15T08:56:37;16.27;;;8.02;;
84796;SDS011;75028;51.374;21.078;2024-01-15T09:01:30;15.13;;;7.53;;
84796;SDS011;75028;51.374;21.078;2024-01-15T09:06:22;18.02;;;7.82;;
84796;SDS011;75028;51.374;21.078;2024-01-15T09:08:48;18.15;;;7.57;;
84796;SDS011;75028;51.374;21.078;2024-01-15T09:11:14;13.75;;;7.63;;
84796;SDS011;75028;51.374;21.078;2024-01-15T09:13:41;15.85;;;8.15;;
84796;SDS011;75028;51.374;21.078;2024-01-15T09:16:07;16.17;;;7.30;;
84796;SDS011;75028;51.374;21.078;2024-01-15T09:18:37;16.73;;;7.20;;
84796;SDS011;75028;51.374;21.078;2024-01-15T09:21:07;14.43;;;7.18;;
84796;SDS011;75028;51.374;21.078;2024-01-15T09:23:37;14.68;;;6.95;;
84796;SDS011;75028;51.374;21.078;2024-01-15T09:28:29;14.65;;;7.93;;
84796;SDS011;75028;51.374;21.078;2024-01-15T09:30:55;12.50;;;6.88;;
84796;SDS011;75028;51.374;21.078;2024-01-15T09:33:21;14.30;;;7.68;;
84796;SDS011;75028;51.374;21.078;2024-01-15T09:35:47;13.55;;;7.38;;
84796;SDS011;75028;51.374;21.078;2024-01-15T09:38:13;12.13;;;7.13;;
84796;SDS011;75028;51.374;21.078;2024-01-15T09:40:39;15.35;;;7.25;;
84796;SDS011;75028;51.374;21.078;2024-01-15T09:43:09;11.02;;;6.97;;
84796;SDS011;75028;51.374;21.078;2024-01-15T09:45:36;19.42;;;9.13;;
84796;SDS011;75028;51.374;21.078;2024-01-15T09:48:02;12.82;;;7.03;;
84796;SDS011;75028;51.374;21.078;2024-01-15T09:50:28;11.82;;;6.47;;
84796;SDS011;75028;51.374;21.078;2024-01-15T09:52:55;13.10;;;6.38;;
84796;SDS011;75028;51.374;21.078;2024-01-15T09:55:23;12.65;;;6.88;;
84796;SDS011;75028;51.374;21.078;2024-01-15T09:57:49;10.75;;;6.28;;
84796;SDS011;75028;51.374;21.078;2024-01-15T10:00:18;10.25;;;6.03;;
84796;SDS011;75028;51.374;21.078;2024-01-15T10:02:45;8.77;;;5.10;;
84796;SDS011;75028;51.374;21.078;2024-01-15T10:05:11;10.25;;;5.28;;
84796;SDS011;75028;51.374;21.078;2024-01-15T10:07:37;12.25;;;5.95;;
84796;SDS011;75028;51.374;21.078;2024-01-15T10:10:05;13.40;;;6.85;;
84796;SDS011;75028;51.374;21.078;2024-01-15T10:12:33;9.98;;;5.43;;
84796;SDS011;75028;51.374;21.078;2024-01-15T10:15:00;12.70;;;6.22;;
84796;SDS011;75028;51.374;21.078;2024-01-15T10:17:27;11.18;;;5.82;;
84796;SDS011;75028;51.374;21.078;2024-01-15T10:19:53;12.80;;;6.68;;
84796;SDS011;75028;51.374;21.078;2024-01-15T10:22:19;11.25;;;5.82;;
84796;SDS011;75028;51.374;21.078;2024-01-15T10:24:45;11.10;;;6.38;;
84796;SDS011;75028;51.374;21.078;2024-01-15T10:27:12;10.57;;;5.57;;
84796;SDS011;75028;51.374;21.078;2024-01-15T10:29:38;13.50;;;7.22;;
84796;SDS011;75028;51.374;21.078;2024-01-15T10:32:07;9.55;;;5.63;;
84796;SDS011;75028;51.374;21.078;2024-01-15T10:34:37;10.82;;;5.43;;
84796;SDS011;75028;51.374;21.078;2024-01-15T10:37:07;9.68;;;5.53;;
84796;SDS011;75028;51.374;21.078;2024-01-15T10:39:33;13.20;;;6.85;;
84796;SDS011;75028;51.374;21.078;2024-01-15T10:41:59;12.07;;;5.70;;
84796;SDS011;75028;51.374;21.078;2024-01-15T10:44:25;9.93;;;5.35;;
84796;SDS011;75028;51.374;21.078;2024-01-15T10:46:51;12.63;;;6.18;;
84796;SDS011;75028;51.374;21.078;2024-01-15T10:49:18;9.85;;;5.18;;
84796;SDS011;75028;51.374;21.078;2024-01-15T10:51:45;13.80;;;6.10;;
84796;SDS011;75028;51.374;21.078;2024-01-15T10:54:13;12.65;;;6.13;;
84796;SDS011;75028;51.374;21.078;2024-01-15T10:56:39;11.73;;;5.60;;
84796;SDS011;75028;51.374;21.078;2024-01-15T10:59:07;9.55;;;5.28;;
84796;SDS011;75028;51.374;21.078;2024-01-15T11:01:36;12.10;;;5.18;;
84796;SDS011;75028;51.374;21.078;2024-01-15T11:06:29;13.27;;;5.70;;
84796;SDS011;75028;51.374;21.078;2024-01-15T11:09:07;17.52;;;5.80;;
84796;SDS011;75028;51.374;21.078;2024-01-15T11:11:41;13.90;;;6.13;;
84796;SDS011;75028;51.374;21.078;2024-01-15T11:14:07;12.80;;;5.68;;
84796;SDS011;75028;51.374;21.078;2024-01-15T11:19:19;11.95;;;5.45;;
84796;SDS011;75028;51.374;21.078;2024-01-15T11:21:45;17.08;;;6.18;;
84796;SDS011;75028;51.374;21.078;2024-01-15T11:24:11;11.68;;;5.05;;
84796;SDS011;75028;51.374;21.078;2024-01-15T11:27:04;9.45;;;5.32;;
84796;SDS011;75028;51.374;21.078;2024-01-15T11:29:32;9.85;;;5.93;;
84796;SDS011;75028;51.374;21.078;2024-01-15T11:32:01;16.33;;;7.22;;
84796;SDS011;75028;51.374;21.078;2024-01-15T11:37:19;13.82;;;6.22;;
84796;SDS011;75028;51.374;21.078;2024-01-15T11:39:46;14.05;;;6.57;;
84796;SDS011;75028;51.374;21.078;2024-01-15T11:42:14;16.60;;;7.07;;
84796;SDS011;75028;51.374;21.078;2024-01-15T11:44:41;13.52;;;6.70;;
84796;SDS011;75028;51.374;21.078;2024-01-15T11:47:08;17.15;;;6.68;;
84796;SDS011;75028;51.374;21.078;2024-01-15T11:52:12;13.27;;;6.25;;
84796;SDS011;75028;51.374;21.078;2024-01-15T11:54:45;13.57;;;7.38;;
84796;SDS011;75028;51.374;21.078;2024-01-15T11:57:22;19.63;;;8.20;;
84796;SDS011;75028;51.374;21.078;2024-01-15T12:00:09;77.38;;;36.05;;
84796;SDS011;75028;51.374;21.078;2024-01-15T12:02:37;33.42;;;17.58;;
84796;SDS011;75028;51.374;21.078;2024-01-15T12:05:13;79.80;;;50.05;;
84796;SDS011;75028;51.374;21.078;2024-01-15T12:07:44;15.65;;;9.02;;
84796;SDS011;75028;51.374;21.078;2024-01-15T12:10:11;16.50;;;9.02;;
84796;SDS011;75028;51.374;21.078;2024-01-15T12:15:21;19.80;;;13.20;;
84796;SDS011;75028;51.374;21.078;2024-01-15T12:17:47;17.17;;;8.15;;
84796;SDS011;75028;51.374;21.078;2024-01-15T12:20:13;21.15;;;14.07;;
84796;SDS011;75028;51.374;21.078;2024-01-15T12:22:41;13.38;;;7.93;;
84796;SDS011;75028;51.374;21.078;2024-01-15T12:25:07;13.57;;;9.05;;
84796;SDS011;75028;51.374;21.078;2024-01-15T12:27:33;19.17;;;8.75;;
84796;SDS011;75028;51.374;21.078;2024-01-15T12:29:59;14.15;;;7.28;;
84796;SDS011;75028;51.374;21.078;2024-01-15T12:32:25;16.80;;;10.07;;
84796;SDS011;75028;51.374;21.078;2024-01-15T12:34:51;15.27;;;9.35;;
84796;SDS011;75028;51.374;21.078;2024-01-15T12:37:18;12.32;;;6.20;;
84796;SDS011;75028;51.374;21.078;2024-01-15T12:39:47;9.88;;;5.55;;
84796;SDS011;75028;51.374;21.078;2024-01-15T12:42:14;9.23;;;5.45;;
84796;SDS011;75028;51.374;21.078;2024-01-15T12:44:44;13.93;;;6.70;;
84796;SDS011;75028;51.374;21.078;2024-01-15T12:47:11;16.17;;;7.95;;
84796;SDS011;75028;51.374;21.078;2024-01-15T12:52:08;14.07;;;7.10;;
84796;SDS011;75028;51.374;21.078;2024-01-15T12:54:35;12.90;;;5.85;;
84796;SDS011;75028;51.374;21.078;2024-01-15T12:57:01;16.70;;;7.22;;
84796;SDS011;75028;51.374;21.078;2024-01-15T12:59:27;10.27;;;6.57;;
84796;SDS011;75028;51.374;21.078;2024-01-15T13:01:54;11.85;;;7.82;;
84796;SDS011;75028;51.374;21.078;2024-01-15T13:04:21;11.45;;;5.82;;
84796;SDS011;75028;51.374;21.078;2024-01-15T13:06:50;16.00;;;7.88;;
84796;SDS011;75028;51.374;21.078;2024-01-15T13:09:16;14.57;;;6.50;;
84796;SDS011;75028;51.374;21.078;2024-01-15T13:11:46;12.40;;;6.28;;
84796;SDS011;75028;51.374;21.078;2024-01-15T13:14:12;13.82;;;7.30;;
84796;SDS011;75028;51.374;21.078;2024-01-15T13:16:41;14.73;;;6.30;;
84796;SDS011;75028;51.374;21.078;2024-01-15T13:19:08;11.68;;;5.10;;
84796;SDS011;75028;51.374;21.078;2024-01-15T13:21:37;10.82;;;5.82;;
84796;SDS011;75028;51.374;21.078;2024-01-15T13:26:31;11.32;;;6.07;;
84796;SDS011;75028;51.374;21.078;2024-01-15T13:29:01;13.07;;;5.72;;
84796;SDS011;75028;51.374;21.078;2024-01-15T13:31:27;15.85;;;6.78;;
84796;SDS011;75028;51.374;21.078;2024-01-15T13:33:53;12.40;;;6.43;;
84796;SDS011;75028;51.374;21.078;2024-01-15T13:36:24;12.25;;;6.15;;
84796;SDS011;75028;51.374;21.078;2024-01-15T13:38:53;13.63;;;7.53;;
84796;SDS011;75028;51.374;21.078;2024-01-15T13:43:56;11.57;;;5.03;;
84796;SDS011;75028;51.374;21.078;2024-01-15T13:46:23;18.60;;;7.60;;
84796;SDS011;75028;51.374;21.078;2024-01-15T13:48:50;15.00;;;6.07;;
84796;SDS011;75028;51.374;21.078;2024-01-15T13:51:16;15.13;;;9.23;;
84796;SDS011;75028;51.374;21.078;2024-01-15T13:53:42;17.88;;;6.93;;
84796;SDS011;75028;51.374;21.078;2024-01-15T13:56:08;9.32;;;5.45;;
84796;SDS011;75028;51.374;21.078;2024-01-15T13:58:35;12.68;;;7.15;;
84796;SDS011;75028;51.374;21.078;2024-01-15T14:01:02;9.52;;;5.25;;
84796;SDS011;75028;51.374;21.078;2024-01-15T14:03:32;12.75;;;5.35;;
84796;SDS011;75028;51.374;21.078;2024-01-15T14:06:00;13.07;;;5.95;;
84796;SDS011;75028;51.374;21.078;2024-01-15T14:08:28;15.60;;;6.43;;
84796;SDS011;75028;51.374;21.078;2024-01-15T14:10:54;11.13;;;5.13;;
84796;SDS011;75028;51.374;21.078;2024-01-15T14:13:22;15.43;;;7.03;;
84796;SDS011;75028;51.374;21.078;2024-01-15T14:15:48;12.02;;;5.93;;
84796;SDS011;75028;51.374;21.078;2024-01-15T14:18:16;12.93;;;6.15;;
84796;SDS011;75028;51.374;21.078;2024-01-15T14:20:43;13.15;;;5.63;;
84796;SDS011;75028;51.374;21.078;2024-01-15T14:25:35;13.32;;;5.25;;
84796;SDS011;75028;51.374;21.078;2024-01-15T14:28:01;13.75;;;6.22;;
84796;SDS011;75028;51.374;21.078;2024-01-15T14:30:27;12.23;;;6.53;;
84796;SDS011;75028;51.374;21.078;2024-01-15T14:32:53;22.85;;;8.77;;
84796;SDS011;75028;51.374;21.078;2024-01-15T14:35:20;24.35;;;9.57;;
84796;SDS011;75028;51.374;21.078;2024-01-15T14:37:45;21.42;;;9.02;;
84796;SDS011;75028;51.374;21.078;2024-01-15T14:40:14;35.75;;;11.00;;
84796;SDS011;75028;51.374;21.078;2024-01-15T14:42:43;28.90;;;9.32;;
84796;SDS011;75028;51.374;21.078;2024-01-15T14:45:09;19.83;;;8.57;;
84796;SDS011;75028;51.374;21.078;2024-01-15T14:47:38;15.98;;;7.32;;
84796;SDS011;75028;51.374;21.078;2024-01-15T14:50:06;19.45;;;8.18;;
84796;SDS011;75028;51.374;21.078;2024-01-15T14:52:33;257.40;;;69.97;;
84796;SDS011;75028;51.374;21.078;2024-01-15T14:55:00;404.52;;;109.72;;
84796;SDS011;75028;51.374;21.078;2024-01-15T14:57:26;145.45;;;44.42;;
84796;SDS011;75028;51.374;21.078;2024-01-15T14:59:52;49.72;;;18.27;;